ENMS/MJF METAR and TAF weather

Enter ICAO airport designator
Station Type Date Time Source
ENMS METAR 2021/01/17 19:50 UTC NOAA

ENMS 171950Z VRB02KT CAVOK M15/M17 Q1011 RMK WIND 412FT 13003KT 100V170


Station Type Date Time Source
ENMS Decoded METAR 2021/01/17 19:50 UTC NOAA

Mosjoen Kjaerstad, Norway (ENMS) 65-48N 013-08E
Jan 17, 2021 - 02:50 PM EST / 2021.01.17 1950 UTC
Wind: Variable at 2 MPH (2 KT):0
Visibility: greater than 7 mile(s):0
Temperature: 5 F (-15 C)
Dew Point: 1 F (-17 C)
Relative Humidity: 84%
Pressure (altimeter): 29.85 in. Hg (1011 hPa)
ob: ENMS 171950Z VRB02KT CAVOK M15/M17 Q1011 RMK WIND 412FT 13003KT 100V170
cycle: 20

Station Type Date Time Source
ENMS TAF UTC NOAA

Error!

Example: see airport list